Time;durP1;ratioP1;P1;durP2;ratioP2;P2;SDS_P1;SDS_P2;PMS_P1;PMS_P2;Temp;Humidity;BMP_temperature;BMP_pressure;BME280_temperature;BME280_humidity;BME280_pressure;Samples;Min_cycle;Max_cycle;Signal;HPM_P1;HPM_P2
2022/11/11 00:01:29;;;;;;;;;21.50;21.50;;;;;10.96;77.25;102094.19;5076720;27;45448;-76
2022/11/11 00:03:57;;;;;;;;;16.50;16.50;;;;;10.84;77.12;102073.34;5076329;28;46283;-76
2022/11/11 00:06:22;;;;;;;;;15.00;15.00;;;;;10.89;77.33;102082.03;5074788;28;45612;-75
2022/11/11 00:08:48;;;;;;;;;15.75;15.75;;;;;10.81;77.32;102068.97;5092140;27;45488;-76
2022/11/11 00:11:15;;;;;;;;;12.00;12.00;;;;;10.86;77.50;102083.81;5076803;28;45452;-76
2022/11/11 00:13:41;;;;;;;;;14.00;14.00;;;;;10.77;77.64;102074.34;5091724;27;48043;-75
2022/11/11 00:16:10;;;;;;;;;19.75;18.25;;;;;10.77;77.75;102080.47;5076185;28;45277;-76
2022/11/11 00:26:46;;;;;;;;;18.50;16.75;;;;;10.71;78.15;102070.03;5077357;28;45260;-75
2022/11/11 00:29:11;;;;;;;;;15.50;15.50;;;;;10.65;78.44;102064.88;5075773;28;45363;-78
2022/11/11 00:32:21;;;;;;;;;17.75;17.75;;;;;10.66;78.55;102072.75;5073972;27;45593;-75
2022/11/11 00:34:22;;;;;;;;;18.00;17.25;;;;;10.65;78.75;102070.13;5075216;28;46232;-75
2022/11/11 00:36:47;;;;;;;;;14.25;12.75;;;;;10.66;78.38;102075.41;5074969;27;45496;-75
2022/11/11 00:39:12;;;;;;;;;15.50;15.50;;;;;10.61;79.01;102074.59;5074909;27;45358;-75
2022/11/11 00:41:38;;;;;;;;;15.25;15.00;;;;;10.59;78.96;102070.25;5075957;27;45402;-75
2022/11/11 00:44:03;;;;;;;;;18.00;18.00;;;;;10.60;79.34;102091.28;5075760;27;46604;-76
2022/11/11 00:51:56;;;;;;;;;16.75;16.25;;;;;10.63;79.11;102114.03;5075705;28;45162;-75
2022/11/11 00:54:21;;;;;;;;;12.00;12.00;;;;;10.57;79.14;102099.19;5075553;27;45195;-75
2022/11/11 00:56:47;;;;;;;;;19.25;19.25;;;;;10.66;79.34;102121.88;5074154;27;45351;-75
2022/11/11 00:59:12;;;;;;;;;16.25;16.25;;;;;10.68;78.93;102117.47;5075248;27;45442;-75
2022/11/11 01:01:37;;;;;;;;;13.75;13.75;;;;;10.69;78.83;102108.66;5075763;27;45590;-75
2022/11/11 01:04:03;;;;;;;;;15.00;15.00;;;;;10.74;79.05;102100.72;5074193;27;46051;-75
2022/11/11 01:06:29;;;;;;;;;14.00;14.00;;;;;10.72;78.63;102100.72;5075731;27;45492;-75
2022/11/11 01:08:55;;;;;;;;;14.75;14.75;;;;;10.61;79.15;102074.59;5074058;28;45315;-75
2022/11/11 01:11:22;;;;;;;;;17.75;15.50;;;;;10.72;78.29;102102.50;5076049;27;45340;-76
2022/11/11 01:13:49;;;;;;;;;18.00;18.00;;;;;10.73;78.20;102104.25;5075636;28;46321;-76
2022/11/11 01:16:18;;;;;;;;;14.50;14.50;;;;;10.76;78.52;102098.94;5074499;27;45275;-76
2022/11/11 01:18:43;;;;;;;;;16.25;16.25;;;;;10.75;78.10;102091.94;5075263;27;45322;-75
2022/11/11 01:21:12;;;;;;;;;23.25;23.25;;;;;10.79;78.42;102099.72;5074113;28;45360;-75
2022/11/11 01:23:40;;;;;;;;;14.25;14.25;;;;;10.79;78.09;102097.09;5075199;28;45706;-75
2022/11/11 01:26:10;;;;;;;;;16.00;16.00;;;;;10.77;78.18;102087.50;5074980;27;45228;-76
2022/11/11 01:28:36;;;;;;;;;14.25;14.25;;;;;10.77;78.67;102090.13;5075031;27;45400;-76
2022/11/11 01:31:04;;;;;;;;;17.25;14.75;;;;;10.85;78.55;102104.03;5073846;28;45490;-76
2022/11/11 01:33:29;;;;;;;;;14.25;14.25;;;;;10.81;78.50;102092.66;5073782;28;47480;-75
2022/11/11 01:35:55;;;;;;;;;15.00;15.00;;;;;10.89;78.09;102097.81;5073610;28;45313;-76
2022/11/11 01:38:20;;;;;;;;;16.00;16.00;;;;;10.89;77.97;102096.94;5075823;27;45238;-75
2022/11/11 01:40:48;;;;;;;;;15.00;13.50;;;;;10.89;78.43;102099.56;5075254;27;45294;-75
2022/11/11 01:43:17;;;;;;;;;13.25;13.25;;;;;10.89;77.87;102102.19;5075000;28;45558;-75
2022/11/11 01:45:49;;;;;;;;;15.00;15.00;;;;;10.91;78.26;102106.56;5074932;27;45393;-75
2022/11/11 01:51:24;;;;;;;;;16.25;16.25;;;;;10.96;77.51;102106.47;5075268;28;45375;-75
2022/11/11 01:53:56;;;;;;;;;16.00;16.00;;;;;10.94;77.54;102105.63;5073384;27;45419;-74
2022/11/11 01:56:22;;;;;;;;;16.00;16.00;;;;;10.99;77.46;102113.47;5074902;27;45284;-74
2022/11/11 01:58:48;;;;;;;;;14.00;14.00;;;;;10.94;77.12;102113.53;5074555;27;45287;-75
2022/11/11 02:01:14;;;;;;;;;15.75;15.75;;;;;11.00;77.24;102123.09;5074739;27;45503;-75
2022/11/11 02:03:40;;;;;;;;;15.75;15.75;;;;;10.93;77.30;102117.06;5074601;27;45175;-76
2022/11/11 02:06:07;;;;;;;;;18.75;18.00;;;;;10.92;77.60;102110.94;5074613;27;45425;-75
2022/11/11 02:08:36;;;;;;;;;18.75;14.75;;;;;10.94;77.30;102110.88;5074756;28;45414;-74
2022/11/11 02:11:10;;;;;;;;;20.50;20.00;;;;;11.01;76.86;102119.56;5074807;28;45323;-75
2022/11/11 02:16:25;;;;;;;;;18.00;18.00;;;;;10.99;77.04;102108.19;5074959;28;45399;-74
2022/11/11 02:18:51;;;;;;;;;22.25;21.00;;;;;10.95;76.95;102105.63;5074031;28;45318;-76
2022/11/11 02:21:43;;;;;;;;;18.00;18.00;;;;;10.96;77.07;102095.94;5074670;27;45358;-75
2022/11/11 02:24:14;;;;;;;;;17.00;17.00;;;;;10.92;76.62;102092.50;5074559;27;46542;-76
2022/11/11 02:26:42;;;;;;;;;17.75;17.75;;;;;10.93;76.78;102102.13;5072728;28;45270;-75
2022/11/11 02:29:12;;;;;;;;;17.75;17.75;;;;;10.93;76.68;102102.13;5074243;27;45267;-75
2022/11/11 02:31:38;;;;;;;;;12.25;12.25;;;;;10.95;76.67;102102.09;5074680;27;45394;-75
2022/11/11 02:34:03;;;;;;;;;17.00;17.00;;;;;10.94;76.72;102108.25;5074295;28;46127;-76
2022/11/11 02:36:29;;;;;;;;;14.75;14.75;;;;;10.90;77.09;102099.56;5074503;27;45393;-75
2022/11/11 02:38:55;;;;;;;;;18.75;18.00;;;;;10.91;77.06;102093.41;5074786;28;45384;-76
2022/11/11 02:44:04;;;;;;;;;9.75;9.75;;;;;10.92;77.03;102097.78;5074213;28;45407;-75
2022/11/11 02:46:29;;;;;;;;;15.25;14.75;;;;;10.92;76.43;102094.25;5073987;27;45294;-75
2022/11/11 02:48:55;;;;;;;;;17.50;16.00;;;;;10.91;76.18;102095.16;5073263;28;45314;-75
2022/11/11 02:51:20;;;;;;;;;12.50;12.50;;;;;10.75;76.67;102068.25;5074412;27;45612;-75
2022/11/11 02:53:45;;;;;;;;;15.00;15.00;;;;;10.85;76.52;102093.50;5075339;27;45338;-77
2022/11/11 02:56:11;;;;;;;;;16.50;16.00;;;;;10.83;76.68;102090.03;5074811;27;45332;-76
2022/11/11 02:58:36;;;;;;;;;19.00;19.00;;;;;10.81;77.04;102103.19;5073899;28;45356;-76
2022/11/11 03:01:01;;;;;;;;;16.00;16.00;;;;;10.80;76.73;102112.00;5074073;27;45307;-74
2022/11/11 03:03:27;;;;;;;;;16.25;16.25;;;;;10.74;76.62;102093.66;5073841;27;46411;-76
2022/11/11 03:05:52;;;;;;;;;15.00;15.00;;;;;10.70;76.52;102093.75;5074304;27;45431;-74
2022/11/11 03:08:17;;;;;;;;;14.75;14.75;;;;;10.68;76.84;102101.66;5074103;27;45495;-75
2022/11/11 03:10:43;;;;;;;;;12.00;12.00;;;;;10.52;76.91;102079.97;5074178;27;45361;-75
2022/11/11 03:13:08;;;;;;;;;12.75;12.50;;;;;10.61;77.25;102094.78;5074249;27;46818;-76
2022/11/11 03:15:33;;;;;;;;;14.75;14.75;;;;;10.56;77.25;102089.56;5074115;27;45298;-75
2022/11/11 03:17:59;;;;;;;;;12.75;11.25;;;;;10.49;76.93;102080.03;5074276;27;45214;-75
2022/11/11 03:23:09;;;;;;;;;12.50;12.50;;;;;10.59;77.57;102086.88;5074056;28;45813;-75
2022/11/11 03:25:39;;;;;;;;;14.75;14.75;;;;;10.58;77.30;102085.16;5073095;28;45403;-74
2022/11/11 03:28:05;;;;;;;;;15.00;15.00;;;;;10.62;77.14;102083.34;5073663;27;45456;-75
2022/11/11 03:30:31;;;;;;;;;10.50;10.50;;;;;10.59;77.20;102076.34;5072315;28;45303;-76
2022/11/11 03:33:00;;;;;;;;;12.50;12.50;;;;;10.63;77.53;102078.06;5073548;28;45386;-75
2022/11/11 03:35:26;;;;;;;;;10.25;10.25;;;;;10.66;76.91;102092.94;5073458;27;45333;-74
2022/11/11 03:40:36;;;;;;;;;15.50;15.50;;;;;10.60;76.94;102088.66;5076967;28;45189;-75
2022/11/11 03:43:01;;;;;;;;;17.50;17.50;;;;;10.60;77.17;102082.50;5076697;27;45307;-74
2022/11/11 03:45:26;;;;;;;;;17.50;17.50;;;;;10.64;77.27;102094.72;5075649;28;45637;-75
2022/11/11 03:47:53;;;;;;;;;18.25;16.00;;;;;10.61;76.79;102093.03;5077020;27;45283;-75
2022/11/11 03:50:19;;;;;;;;;16.25;16.25;;;;;10.59;76.84;102097.41;5077234;27;45974;-75
2022/11/11 03:52:45;;;;;;;;;15.25;15.25;;;;;10.58;76.68;102098.31;5076796;27;46643;-75
2022/11/11 03:55:10;;;;;;;;;21.25;21.00;;;;;10.51;76.88;102089.66;5076304;27;45473;-75
2022/11/11 03:57:44;;;;;;;;;12.75;12.75;;;;;10.54;77.39;102088.72;5077244;27;45464;-75
2022/11/11 04:00:15;;;;;;;;;14.50;14.50;;;;;10.62;77.02;102100.03;5077322;27;45303;-76
2022/11/11 04:10:57;;;;;;;;;16.00;16.00;;;;;10.74;76.71;102119.13;5077057;28;45172;-76
2022/11/11 04:16:07;;;;;;;;;12.75;12.75;;;;;10.76;77.06;102119.97;5076466;28;45303;-74
2022/11/11 04:25:47;;;;;;;;;11.25;11.25;;;;;10.71;76.53;102111.28;5076564;28;45743;-75
2022/11/11 04:26:48;;;;;;;;;13.75;13.00;;;;;10.77;76.58;102121.72;5075880;28;45616;-74
2022/11/11 04:29:29;;;;;;;;;9.25;9.25;;;;;10.74;75.84;102117.38;5076343;27;45511;-75
2022/11/11 04:34:40;;;;;;;;;13.00;13.00;;;;;10.65;76.28;102099.09;5075815;28;45433;-74
2022/11/11 04:37:05;;;;;;;;;11.75;11.75;;;;;10.69;75.95;102106.03;5074918;28;45377;-74
2022/11/11 04:42:15;;;;;;;;;9.50;9.50;;;;;10.76;76.11;102125.25;5076746;28;45330;-75
2022/11/11 04:47:24;;;;;;;;;18.25;17.50;;;;;10.76;76.42;102110.31;5075970;28;45157;-76
2022/11/11 04:49:49;;;;;;;;;13.25;13.25;;;;;10.75;76.64;102100.69;5075273;27;45151;-76
2022/11/11 04:52:27;;;;;;;;;16.00;16.00;;;;;10.78;76.67;102108.53;5075611;27;45350;-74
2022/11/11 04:57:45;;;;;;;;;15.00;15.00;;;;;10.73;77.18;102109.50;5075675;28;45469;-75
2022/11/11 05:00:13;;;;;;;;;15.00;15.00;;;;;10.75;76.65;102098.03;5075590;27;45276;-74
2022/11/11 05:05:24;;;;;;;;;15.25;15.25;;;;;10.80;77.03;102111.13;5075486;28;45788;-75
2022/11/11 05:10:34;;;;;;;;;17.25;17.25;;;;;10.76;77.12;102101.56;5075702;28;45421;-74
2022/11/11 05:21:21;;;;;;;;;17.75;17.75;;;;;10.75;77.14;102097.19;5075175;28;45304;-74
2022/11/11 05:26:31;;;;;;;;;14.50;14.50;;;;;10.75;76.80;102092.78;5075207;28;45940;-75
2022/11/11 05:28:56;;;;;;;;;14.00;14.00;;;;;10.73;77.28;102099.84;5074685;27;48766;-75
2022/11/11 05:31:23;;;;;;;;;15.75;15.75;;;;;10.78;77.20;102108.53;5075279;27;45322;-75
2022/11/11 05:33:48;;;;;;;;;16.50;16.50;;;;;10.78;76.37;102111.16;5074116;28;45329;-76
2022/11/11 05:36:13;;;;;;;;;19.00;16.50;;;;;10.67;76.40;102084.13;5073575;28;47210;-75
2022/11/11 05:38:39;;;;;;;;;15.50;15.50;;;;;10.79;77.04;102115.53;5074934;27;45313;-74
2022/11/11 05:41:05;;;;;;;;;13.00;11.75;;;;;10.78;76.71;102119.03;5073800;28;45381;-74
2022/11/11 05:43:30;;;;;;;;;13.25;13.25;;;;;10.81;76.75;102120.78;5075888;27;45362;-75
2022/11/11 05:45:56;;;;;;;;;12.00;12.00;;;;;10.76;76.92;102098.94;5075744;27;45361;-74
2022/11/11 05:48:21;;;;;;;;;11.00;10.25;;;;;10.81;76.13;102112.88;5074251;28;45481;-75
2022/11/11 05:50:46;;;;;;;;;12.00;12.00;;;;;10.75;76.51;102108.56;5074295;28;45449;-74
2022/11/11 05:53:12;;;;;;;;;11.75;11.75;;;;;10.78;76.40;102102.41;5075064;27;45436;-74
2022/11/11 05:55:37;;;;;;;;;14.75;14.75;;;;;10.80;76.22;102106.72;5075316;27;46323;-75
2022/11/11 05:58:02;;;;;;;;;11.25;11.25;;;;;10.67;76.01;102078.88;5075071;27;45385;-74
2022/11/11 06:00:28;;;;;;;;;10.25;10.25;;;;;10.79;76.17;102101.50;5074849;28;45339;-74
2022/11/11 06:02:53;;;;;;;;;8.75;8.75;;;;;10.77;76.17;102103.28;5074817;27;45361;-74
2022/11/11 06:05:19;;;;;;;;;9.75;9.75;;;;;10.77;76.19;102105.94;5074685;27;45471;-74
2022/11/11 06:07:44;;;;;;;;;11.50;10.75;;;;;10.75;76.08;102102.44;5074540;27;45206;-76
2022/11/11 06:13:08;;;;;;;;;10.50;10.50;;;;;10.71;75.58;102116.56;5074981;28;45382;-75
2022/11/11 06:15:36;;;;;;;;;13.50;13.50;;;;;10.64;76.22;102105.25;5074776;27;45517;-75
2022/11/11 06:18:03;;;;;;;;;10.25;10.25;;;;;10.66;76.29;102114.00;5075205;27;45224;-75
2022/11/11 06:20:28;;;;;;;;;9.00;9.00;;;;;10.69;75.97;102121.84;5074464;27;45440;-75
2022/11/11 06:22:57;;;;;;;;;13.75;13.50;;;;;10.71;75.76;102121.81;5075009;27;45392;-75
2022/11/11 06:28:13;;;;;;;;;8.50;8.50;;;;;10.69;76.31;102129.72;5074136;28;45353;-75
2022/11/11 06:30:39;;;;;;;;;8.25;8.25;;;;;10.62;75.97;102128.97;5074655;27;45340;-75
2022/11/11 06:33:08;;;;;;;;;10.50;10.50;;;;;10.64;76.09;102129.81;5074717;28;45563;-75
2022/11/11 06:35:38;;;;;;;;;10.25;10.25;;;;;10.65;76.03;102136.81;5073786;27;45404;-75
2022/11/11 06:38:05;;;;;;;;;11.25;11.25;;;;;10.63;75.50;102133.34;5073940;27;45282;-74
2022/11/11 06:40:30;;;;;;;;;12.50;12.50;;;;;10.64;76.09;102140.34;5074052;28;45290;-76
2022/11/11 06:42:57;;;;;;;;;9.50;9.50;;;;;10.59;75.71;102134.25;5074300;27;45531;-75
2022/11/11 06:45:26;;;;;;;;;10.50;10.50;;;;;10.56;75.80;102133.44;5074086;28;45394;-73
2022/11/11 06:47:52;;;;;;;;;9.00;9.00;;;;;10.58;76.61;102148.31;5074228;27;45310;-74
2022/11/11 06:50:18;;;;;;;;;8.25;8.25;;;;;10.59;76.48;102144.78;5074548;27;45266;-73
2022/11/11 06:52:43;;;;;;;;;9.25;9.25;;;;;10.59;76.10;102147.41;5074644;27;45434;-74
2022/11/11 06:55:09;;;;;;;;;9.25;9.00;;;;;10.56;75.92;102151.88;5074184;27;46356;-74
2022/11/11 06:57:35;;;;;;;;;8.75;8.75;;;;;10.56;76.27;102152.72;5074119;27;45219;-75
2022/11/11 07:00:00;;;;;;;;;11.00;11.00;;;;;10.48;76.32;102152.84;5074163;27;45432;-74
2022/11/11 07:02:25;;;;;;;;;10.50;10.50;;;;;10.56;76.73;102160.59;5072632;28;45329;-75
2022/11/11 07:04:51;;;;;;;;;15.50;15.50;;;;;10.49;76.35;102148.44;5074558;27;45404;-76
2022/11/11 07:07:16;;;;;;;;;13.50;13.50;;;;;10.54;75.96;102156.28;5074250;27;45351;-75
2022/11/11 07:09:42;;;;;;;;;12.25;12.25;;;;;10.52;76.55;102146.66;5074721;27;45387;-75
2022/11/11 07:12:08;;;;;;;;;9.25;9.25;;;;;10.62;76.01;102163.19;5073038;28;45235;-75
2022/11/11 07:14:33;;;;;;;;;13.00;12.50;;;;;10.60;76.31;102157.06;5075712;27;46378;-76
2022/11/11 07:16:58;;;;;;;;;12.50;12.50;;;;;10.61;76.52;102164.06;5077708;27;45291;-76
2022/11/11 07:19:24;;;;;;;;;8.25;8.25;;;;;10.58;76.57;102153.56;5077784;27;45419;-77
2022/11/11 07:21:49;;;;;;;;;13.00;13.00;;;;;10.59;76.68;102157.06;5078186;27;45251;-75
2022/11/11 07:24:14;;;;;;;;;15.00;15.00;;;;;10.60;76.62;102146.53;5077748;27;46345;-75
2022/11/11 07:26:41;;;;;;;;;10.25;10.25;;;;;10.59;76.46;102147.41;5077541;27;45531;-75
2022/11/11 07:29:06;;;;;;;;;8.50;8.50;;;;;10.62;76.66;102147.38;5078352;27;45310;-75
2022/11/11 07:31:31;;;;;;;;;11.00;10.75;;;;;10.62;76.27;102152.66;5078533;27;45562;-76
2022/11/11 07:33:57;;;;;;;;;11.25;11.25;;;;;10.62;76.85;102149.13;5078125;27;45337;-76
2022/11/11 07:36:22;;;;;;;;;12.25;12.25;;;;;10.55;76.40;102135.19;5077096;27;49002;-76
2022/11/11 07:38:48;;;;;;;;;10.00;10.00;;;;;10.62;76.71;102146.50;5077244;27;45838;-75
2022/11/11 07:41:13;;;;;;;;;9.00;9.00;;;;;10.63;76.89;102149.13;5077399;27;45388;-76
2022/11/11 07:43:38;;;;;;;;;12.50;12.00;;;;;10.69;76.21;102160.44;5075802;27;46849;-77
2022/11/11 07:46:04;;;;;;;;;11.00;11.00;;;;;10.69;76.61;102148.16;5077067;27;45674;-75
2022/11/11 07:48:29;;;;;;;;;8.50;8.00;;;;;10.66;76.74;102138.56;5076670;28;45169;-76
2022/11/11 07:50:55;;;;;;;;;10.00;9.75;;;;;10.73;76.92;102152.47;5077192;27;45342;-76
2022/11/11 07:53:20;;;;;;;;;9.50;9.50;;;;;10.78;76.55;102148.00;5076426;27;46366;-75
2022/11/11 07:55:45;;;;;;;;;7.50;7.50;;;;;10.79;76.92;102139.22;5076695;27;45423;-77
2022/11/11 07:58:11;;;;;;;;;8.75;8.75;;;;;10.83;76.32;102140.03;5077181;27;45397;-75
2022/11/11 08:00:37;;;;;;;;;10.00;10.00;;;;;10.91;76.46;102146.06;5075178;28;45745;-76
2022/11/11 08:03:03;;;;;;;;;10.25;10.25;;;;;10.91;76.21;102142.53;5074948;28;46106;-75
2022/11/11 08:05:28;;;;;;;;;13.25;13.25;;;;;10.91;76.65;102137.28;5076588;27;45320;-75
2022/11/11 08:07:53;;;;;;;;;11.00;11.00;;;;;10.94;76.42;102143.38;5076608;27;45477;-75
2022/11/11 08:10:19;;;;;;;;;13.25;13.25;;;;;10.83;76.14;102124.25;5076640;27;45312;-75
2022/11/11 08:15:28;;;;;;;;;13.00;13.00;;;;;11.03;75.96;102159.91;5076131;28;45185;-75
2022/11/11 08:17:53;;;;;;;;;9.25;9.25;;;;;11.06;75.70;102159.84;5076412;27;45512;-75
2022/11/11 08:20:19;;;;;;;;;13.00;13.00;;;;;11.09;75.55;102158.03;5076134;27;45284;-76
2022/11/11 08:22:44;;;;;;;;;12.50;12.50;;;;;10.98;75.80;102138.06;5076047;27;46330;-75
2022/11/11 08:25:13;;;;;;;;;18.00;18.00;;;;;11.01;75.59;102145.91;5075685;27;45390;-74
2022/11/11 08:27:39;;;;;;;;;9.75;9.75;;;;;11.03;75.63;102144.97;5076174;27;45340;-75
2022/11/11 08:30:06;;;;;;;;;12.25;12.25;;;;;11.08;75.39;102148.38;5074220;27;45622;-75
2022/11/11 08:32:32;;;;;;;;;12.00;11.50;;;;;11.08;75.90;102148.38;5108567;27;46578;-74
2022/11/11 08:34:58;;;;;;;;;11.25;11.25;;;;;11.03;76.02;102147.59;5074153;28;45389;-75
2022/11/11 08:37:23;;;;;;;;;15.50;15.50;;;;;11.08;76.23;102150.16;5072737;27;45250;-77
2022/11/11 08:39:48;;;;;;;;;15.25;15.25;;;;;11.10;75.71;102157.13;5068467;28;45422;-74
2022/11/11 08:42:14;;;;;;;;;12.50;12.50;;;;;11.10;75.79;102146.59;5086352;27;45292;-72
2022/11/11 08:44:39;;;;;;;;;13.00;12.75;;;;;11.18;75.32;102153.53;5074920;27;45330;-72
2022/11/11 08:47:04;;;;;;;;;10.50;10.50;;;;;11.15;75.73;102149.16;5070526;28;45570;-72
2022/11/11 08:49:30;;;;;;;;;11.25;11.25;;;;;11.17;75.49;102147.38;5072162;27;45618;-75
2022/11/11 08:51:55;;;;;;;;;14.25;13.50;;;;;11.20;75.37;102149.94;5065859;27;46529;-77
2022/11/11 08:54:20;;;;;;;;;16.00;16.00;;;;;11.29;75.47;102169.13;5071453;27;47157;-76
2022/11/11 08:56:45;;;;;;;;;17.25;17.25;;;;;11.28;75.38;102170.00;5096908;27;45433;-81
2022/11/11 08:59:11;;;;;;;;;17.00;17.00;;;;;11.27;75.07;102165.63;5092661;27;45586;-77
2022/11/11 09:01:36;;;;;;;;;16.00;16.00;;;;;11.26;75.26;102159.53;5074912;28;46332;-77
2022/11/11 09:04:02;;;;;;;;;20.50;20.50;;;;;11.37;75.74;102178.63;5057793;28;45458;-76
2022/11/11 09:06:28;;;;;;;;;18.00;18.00;;;;;11.38;75.17;102180.38;5055577;28;45470;-78
2022/11/11 09:08:53;;;;;;;;;18.25;18.25;;;;;11.36;75.58;102189.19;5056166;28;45415;-74
2022/11/11 09:11:18;;;;;;;;;24.75;22.50;;;;;11.28;75.87;102178.81;5065064;28;46095;-75
2022/11/11 09:13:46;;;;;;;;;15.75;15.75;;;;;11.32;75.14;102182.22;5057135;27;45405;-76
2022/11/11 09:16:12;;;;;;;;;14.75;14.75;;;;;11.33;75.57;102176.06;5056770;28;45374;-77
2022/11/11 09:18:37;;;;;;;;;19.00;18.25;;;;;11.33;75.70;102178.69;5056268;28;45522;-78
2022/11/11 09:21:03;;;;;;;;;18.50;18.50;;;;;11.42;75.39;102186.44;5055682;28;47104;-75
2022/11/11 09:23:29;;;;;;;;;17.25;17.25;;;;;11.44;75.26;102191.69;5056530;28;46025;-79
2022/11/11 09:25:56;;;;;;;;;15.75;15.75;;;;;11.38;74.86;102188.28;5064378;27;45405;-74
2022/11/11 09:28:22;;;;;;;;;15.25;14.75;;;;;11.39;75.51;102197.03;5091808;27;45346;-73
2022/11/11 09:30:47;;;;;;;;;16.00;16.00;;;;;11.39;75.21;102190.00;5070844;28;46967;-74
2022/11/11 09:33:15;;;;;;;;;12.75;12.75;;;;;11.36;75.44;102176.91;5054968;28;45304;-75
2022/11/11 09:35:40;;;;;;;;;16.25;16.25;;;;;11.44;75.22;102187.28;5054664;28;45294;-79
2022/11/11 09:38:06;;;;;;;;;16.25;16.00;;;;;11.46;75.13;102179.38;5058196;28;45557;-74
2022/11/11 09:41:03;;;;;;;;;56.25;46.75;;;;;11.40;75.29;102167.16;5058791;28;45521;-76
2022/11/11 09:43:41;;;;;;;;;17.25;17.25;;;;;11.58;74.93;102189.69;5054768;27;45350;-75
2022/11/11 09:46:28;;;;;;;;;17.50;17.50;;;;;11.53;75.01;102179.19;5062899;28;45377;-77
2022/11/11 09:49:19;;;;;;;;;21.75;20.75;;;;;11.67;74.61;102188.66;5059910;28;45430;-74
2022/11/11 09:51:54;;;;;;;;;20.75;20.75;;;;;11.69;74.29;102189.50;5045695;28;46235;-74
2022/11/11 09:54:47;;;;;;;;;17.75;17.75;;;;;11.75;74.63;102194.63;5070607;28;45980;-76
2022/11/11 09:57:26;;;;;;;;;19.25;17.25;;;;;11.76;74.16;102183.19;5072156;27;45392;-76
2022/11/11 09:59:55;;;;;;;;;22.00;22.00;;;;;11.79;74.03;102182.25;5072401;27;45446;-76
2022/11/11 10:02:33;;;;;;;;;23.25;22.00;;;;;11.88;74.05;102189.97;5072040;27;46489;-74
2022/11/11 10:05:09;;;;;;;;;35.75;33.50;;;;;11.94;74.08;102194.28;5072752;27;45312;-75
2022/11/11 10:07:45;;;;;;;;;18.25;18.25;;;;;11.97;73.35;102200.34;5075434;27;45431;-74
2022/11/11 10:10:33;;;;;;;;;14.75;14.75;;;;;11.92;72.99;102190.81;5073555;27;45372;-74
2022/11/11 10:12:59;;;;;;;;;17.00;16.50;;;;;11.93;73.07;102200.44;5074658;28;45414;-75
2022/11/11 10:15:35;;;;;;;;;10.25;10.25;;;;;11.91;73.09;102202.25;5072993;28;45446;-73
2022/11/11 10:18:31;;;;;;;;;16.75;16.75;;;;;11.94;73.08;102195.13;5089946;27;45268;-75
2022/11/11 10:20:57;;;;;;;;;15.25;15.00;;;;;11.95;72.69;102191.59;5074539;27;45356;-74
2022/11/11 10:23:31;;;;;;;;;14.50;14.50;;;;;12.03;72.61;102202.03;5074165;28;46030;-75
2022/11/11 10:26:04;;;;;;;;;20.25;20.25;;;;;12.02;72.36;102202.94;5074850;27;45259;-77
2022/11/11 10:28:34;;;;;;;;;15.75;15.75;;;;;12.04;72.48;102209.03;5074155;28;45353;-76
2022/11/11 10:31:02;;;;;;;;;15.00;15.00;;;;;12.03;72.47;102202.03;5089710;27;45384;-75
2022/11/11 10:33:34;;;;;;;;;13.50;13.50;;;;;12.00;72.37;102202.09;5072405;28;46272;-75
2022/11/11 10:36:02;;;;;;;;;16.50;14.50;;;;;12.07;71.97;102200.19;5074197;27;45374;-77
2022/11/11 10:38:30;;;;;;;;;14.50;13.25;;;;;12.07;71.90;102195.78;5074364;27;45363;-76
2022/11/11 10:41:09;;;;;;;;;16.50;16.50;;;;;12.08;72.09;102192.25;5074169;28;45308;-76
2022/11/11 10:43:34;;;;;;;;;14.25;14.25;;;;;12.09;71.73;102196.63;5089429;27;46471;-76
2022/11/11 10:46:06;;;;;;;;;16.25;15.75;;;;;12.12;71.68;102198.31;5074065;28;45397;-75
2022/11/11 10:49:01;;;;;;;;;18.00;17.50;;;;;12.07;71.75;102187.88;5074749;27;45258;-77
2022/11/11 10:51:34;;;;;;;;;20.25;19.75;;;;;12.19;71.87;102207.84;5076533;27;45296;-77
2022/11/11 10:54:15;;;;;;;;;13.50;13.50;;;;;12.22;71.23;102204.28;5075896;28;47267;-76
2022/11/11 10:56:46;;;;;;;;;29.00;28.50;;;;;12.29;71.54;102203.25;5077972;27;45442;-75
2022/11/11 10:59:18;;;;;;;;;16.00;16.00;;;;;12.35;71.35;102200.47;5079643;27;45188;-76
2022/11/11 11:01:53;;;;;;;;;21.25;21.25;;;;;12.39;71.09;102202.16;5079435;27;45682;-76
2022/11/11 11:04:34;;;;;;;;;18.50;18.50;;;;;12.50;71.25;102206.31;5079554;27;45374;-75
2022/11/11 11:07:04;;;;;;;;;15.00;14.50;;;;;12.55;70.53;102201.81;5094391;27;45544;-77
2022/11/11 11:09:37;;;;;;;;;18.25;18.25;;;;;12.65;71.04;102202.47;5078831;27;45353;-75
2022/11/11 11:12:12;;;;;;;;;53.00;44.75;;;;;12.68;70.71;102190.06;5079628;27;45317;-77
2022/11/11 11:15:07;;;;;;;;;15.00;15.00;;;;;12.81;70.02;102189.81;5077578;27;45488;-76
2022/11/11 11:17:44;;;;;;;;;17.75;17.75;;;;;12.91;70.32;102193.06;5076136;27;45259;-76
2022/11/11 11:20:19;;;;;;;;;17.00;16.00;;;;;12.83;69.63;102170.34;5077960;27;45307;-76
2022/11/11 11:22:58;;;;;;;;;13.25;13.25;;;;;12.97;69.06;102185.00;5078245;27;45231;-78
2022/11/11 11:25:24;;;;;;;;;24.75;24.00;;;;;12.91;68.71;102169.31;5077483;27;46392;-73
2022/11/11 11:27:51;;;;;;;;;18.25;18.25;;;;;13.10;68.62;102185.56;5076967;27;45533;-74
2022/11/11 11:30:23;;;;;;;;;18.50;18.00;;;;;13.14;68.30;102177.50;5079130;27;45338;-73
2022/11/11 11:32:55;;;;;;;;;19.25;19.25;;;;;13.16;68.17;102169.56;5086572;27;45568;-79
2022/11/11 11:35:36;;;;;;;;;19.50;19.50;;;;;13.13;68.48;102170.50;5058770;28;45450;-78
2022/11/11 11:38:02;;;;;;;;;18.50;18.50;;;;;13.20;68.45;102170.34;5057377;28;45276;-77
2022/11/11 11:40:43;;;;;;;;;19.50;19.50;;;;;13.23;68.21;102167.59;5071037;28;45368;-82
2022/11/11 11:43:46;;;;;;;;;22.75;22.00;;;;;13.16;67.96;102174.84;5079518;28;45493;-75
2022/11/11 11:46:19;;;;;;;;;15.50;15.25;;;;;13.11;68.00;102148.53;5056826;28;45503;-76
2022/11/11 11:49:18;;;;;;;;;14.75;14.75;;;;;13.09;68.15;102146.84;5070061;28;45361;-73
2022/11/11 11:51:55;;;;;;;;;18.25;18.25;;;;;13.19;68.02;102156.28;5063277;28;45412;-78
2022/11/11 11:54:32;;;;;;;;;15.00;14.75;;;;;13.25;67.88;102147.31;5075694;27;45503;-71
2022/11/11 11:57:03;;;;;;;;;19.00;19.00;;;;;13.30;67.69;102151.56;5069369;28;46987;-69
2022/11/11 11:59:40;;;;;;;;;17.75;17.75;;;;;13.36;67.70;102144.38;5076189;27;45379;-71
2022/11/11 12:02:38;;;;;;;;;22.50;20.00;;;;;13.41;67.78;102150.41;5058831;28;45398;-73
2022/11/11 12:05:10;;;;;;;;;13.00;13.00;;;;;13.52;67.69;102136.94;5046799;28;45548;-73
2022/11/11 12:08:12;;;;;;;;;29.50;29.50;;;;;13.61;66.94;102131.41;5089398;27;47132;-73
2022/11/11 12:11:02;;;;;;;;;21.00;21.00;;;;;13.62;66.94;102140.19;5055830;28;45190;-72
2022/11/11 12:13:30;;;;;;;;;17.25;17.25;;;;;13.58;66.11;102145.56;5055873;28;45327;-73
2022/11/11 12:16:10;;;;;;;;;27.75;26.00;;;;;13.57;66.96;102145.63;5058755;28;45230;-73
2022/11/11 12:19:14;;;;;;;;;23.25;23.25;;;;;13.44;66.79;102132.75;5068726;28;45702;-72
2022/11/11 12:21:55;;;;;;;;;19.00;19.00;;;;;13.44;66.86;102138.03;5013669;28;45414;-76
2022/11/11 12:24:49;;;;;;;;;20.50;20.50;;;;;13.39;67.15;102139.91;5061707;27;45323;-75
2022/11/11 12:27:30;;;;;;;;;21.25;20.25;;;;;13.31;67.30;102131.31;5065632;28;46202;-74
2022/11/11 12:30:10;;;;;;;;;19.00;19.00;;;;;13.30;67.50;102129.56;5073846;28;47565;-70
2022/11/11 12:33:01;;;;;;;;;24.00;24.00;;;;;13.28;67.80;102134.03;5075404;28;45190;-73
2022/11/11 12:35:29;;;;;;;;;20.00;20.00;;;;;13.26;67.64;102126.13;5062164;27;45522;-76
2022/11/11 12:37:55;;;;;;;;;20.00;20.00;;;;;13.24;67.78;102124.44;5074637;28;45444;-78
2022/11/11 12:40:20;;;;;;;;;21.25;21.25;;;;;13.21;67.66;102119.22;5074979;28;46427;-73
2022/11/11 12:43:24;;;;;;;;;29.00;29.00;;;;;13.20;67.87;102118.38;5074887;28;45254;-73